Tropical Cyclones
[Index]
Main Index Home Page Stock Weather Photos Extreme Storms Discussion Storm News and Storm Chasing Reports Tropical Cyclones / Hurricanes / Typhoons Weather Data and Links Wild Fires / Bushfires Weather Observation Techniques Weather Picture Catalogue Tornado Pictures and Reports Stock Video Footage and DVDs for sale
Season 1958-1959 Tropical Cyclone 195919 Track Map
Season 1958-1959 Summaries: [BoM-AU] [JTWC-AU] [JTWC-SIO] [JTWC-SPAC] [JTWC-SH]
<<- Previous TC | JTWC 1958-1959 Season | Next TC ->>

click for intensity scale information  Lat/long Grid: Show Hide

 Date Labels: Show Hide

Joint Typhoon Warning Centre Cyclone Data

Name: 195919
Number: 359 / 5919

11 Feb 1959 12:00 UTC to 18 Feb 1959 18:00 UTC

    date/time    lat    long     hPa   cat  kts
1959-02-11 12   16.6   156.7                              
1959-02-11 18   16.5   155.2                              
1959-02-12 00   16.3   154.2                              
1959-02-12 06   15.9   153.4                              
1959-02-12 12   15.7   152.9                              
1959-02-12 18   15.8   152.5                              
1959-02-13 00   16.0   152.1                              
1959-02-13 06   16.3   151.8                              
1959-02-13 12   16.5   151.6                              
1959-02-13 18   16.9   151.8                              
1959-02-14 00   17.1   151.7                              
1959-02-14 06   17.2   151.3                              
1959-02-14 12   17.3   150.8                              
1959-02-14 18   17.5   150.3                              
1959-02-15 00   17.6   149.7                              
1959-02-15 06   17.8   148.9                              
1959-02-15 12   17.9   148.2                              
1959-02-15 18   18.6   147.8                              
1959-02-16 00   19.5   147.4                              
1959-02-16 06   20.4   147.3                              
1959-02-16 12   21.2   147.4                              
1959-02-16 18   22.1   148.3                              
1959-02-17 00   23.0   148.9                              
1959-02-17 06   24.3   149.1                              
1959-02-17 12   25.8   149.2                              
1959-02-17 18   27.1   149.4                              
1959-02-18 00   28.4   149.7                              
1959-02-18 06   29.9   150.6                              
1959-02-18 12   31.5   151.9                              
1959-02-18 18   33.0   153.2                              
Winds are 1-min average.

Tropical cyclone tracks developed by Michael Bath using data from the Joint Typhoon Warning Centre Best Tracks and Google Maps.


[Australian Severe Weather index] [Copyright Notice] [Email Contacts] [Search This Site] [Privacy Policy]
Document: tropical_cyclone_195919.htm Updated: 18 September 2016